createdAt,value
2023-04-24T00:02:03.377Z,99634.77
2023-04-24T00:04:36.981Z,99634.85
2023-04-24T00:07:10.170Z,99635.75
2023-04-24T00:09:43.710Z,99631.43
2023-04-24T00:12:17.742Z,99623.70
2023-04-24T00:14:52.774Z,99626.41
2023-04-24T00:17:25.170Z,99613.49
2023-04-24T00:19:59.730Z,99615.27
2023-04-24T00:22:34.307Z,99616.20
2023-04-24T00:25:08.526Z,99617.93
2023-04-24T00:27:41.169Z,99624.03
2023-04-24T00:30:15.667Z,99629.30
2023-04-24T00:32:48.940Z,99632.05
2023-04-24T00:35:22.726Z,99632.19
2023-04-24T00:37:56.369Z,99623.55
2023-04-24T00:40:29.253Z,99631.41
2023-04-24T00:43:01.807Z,99627.14
2023-04-24T00:45:34.512Z,99622.91
2023-04-24T00:48:06.929Z,99627.33
2023-04-24T00:50:42.712Z,99629.19
2023-04-24T00:53:18.911Z,99629.24
2023-04-24T00:55:52.053Z,99630.13
2023-04-24T00:58:25.288Z,99627.62
2023-04-24T01:00:58.775Z,99627.66
2023-04-24T01:03:34.006Z,99619.02
2023-04-24T01:06:09.103Z,99618.14
2023-04-24T01:08:44.102Z,99617.39
2023-04-24T01:11:17.887Z,99618.28
2023-04-24T01:13:51.830Z,99614.84
2023-04-24T01:16:24.815Z,99613.95
2023-04-24T01:18:57.743Z,99608.70
2023-04-24T01:21:32.944Z,99616.42
2023-04-24T01:24:07.778Z,99614.66
2023-04-24T01:26:40.570Z,99607.72
2023-04-24T01:29:15.614Z,99610.33
2023-04-24T01:31:51.246Z,99610.28
2023-04-24T01:34:23.960Z,99605.03
2023-04-24T01:36:57.640Z,99601.59
2023-04-24T01:39:30.296Z,99597.27
2023-04-24T01:42:03.960Z,99596.44
2023-04-24T01:44:37.618Z,99588.67
2023-04-24T01:47:10.716Z,99591.38
2023-04-24T01:49:43.714Z,99587.09
2023-04-24T01:52:20.682Z,99587.15
2023-04-24T01:54:57.053Z,99575.06
2023-04-24T01:57:31.823Z,99577.70
2023-04-24T02:00:08.678Z,99577.70
2023-04-24T02:02:48.616Z,99576.00
2023-04-24T02:05:23.562Z,99580.40
2023-04-24T02:07:57.270Z,99576.08
2023-04-24T02:10:29.911Z,99581.30
2023-04-24T02:13:06.099Z,99573.57
2023-04-24T02:15:38.710Z,99582.34
2023-04-24T02:18:11.470Z,99581.65
2023-04-24T02:20:45.666Z,99576.58
2023-04-24T02:23:19.588Z,99574.08
2023-04-24T02:25:54.420Z,99568.08
2023-04-24T02:28:26.776Z,99571.60
2023-04-24T02:31:01.672Z,99566.45
2023-04-24T02:33:34.433Z,99562.20
2023-04-24T02:36:09.230Z,99558.85
2023-04-24T02:38:41.862Z,99559.78
2023-04-24T02:41:14.786Z,99561.58
2023-04-24T02:43:49.843Z,99560.73
2023-04-24T02:46:22.183Z,99558.14
2023-04-24T02:48:57.280Z,99556.38
2023-04-24T02:51:30.284Z,99557.22
2023-04-24T02:54:03.129Z,99558.09
2023-04-24T02:56:37.492Z,99552.91
2023-04-24T02:59:11.710Z,99555.62
2023-04-24T03:01:45.520Z,99545.27
2023-04-24T03:04:21.628Z,99547.91
2023-04-24T03:06:56.053Z,99546.22
2023-04-24T03:09:28.723Z,99549.70
2023-04-24T03:12:02.796Z,99546.23
2023-04-24T03:14:37.128Z,99546.23
2023-04-24T03:17:10.022Z,99547.95
2023-04-24T03:19:43.817Z,99548.82
2023-04-24T03:22:17.228Z,99549.63
2023-04-24T03:24:49.796Z,99553.94
2023-04-24T03:27:25.351Z,99553.02
2023-04-24T03:30:03.645Z,99555.54
2023-04-24T03:32:47.335Z,99560.66
2023-04-24T03:35:23.234Z,99563.09
2023-04-24T03:37:56.325Z,99558.56
2023-04-24T03:40:48.031Z,99556.71
2023-04-24T03:43:45.822Z,99562.66
2023-04-24T03:46:34.778Z,99554.72
2023-04-24T03:49:09.005Z,99556.33
2023-04-24T03:51:47.812Z,99554.39
2023-04-24T03:54:24.135Z,99553.31
2023-04-24T03:56:57.625Z,99552.28
2023-04-24T03:59:34.398Z,99554.69
2023-04-24T04:02:27.867Z,99562.25
2023-04-24T04:05:00.654Z,99558.55
2023-04-24T04:07:37.327Z,99561.78
2023-04-24T04:10:11.599Z,99556.36
2023-04-24T04:12:46.572Z,99561.34
2023-04-24T04:15:19.210Z,99560.19
2023-04-24T04:17:51.777Z,99556.45
2023-04-24T04:20:25.395Z,99553.39
2023-04-24T04:22:58.077Z,99561.63
2023-04-24T04:25:41.491Z,99557.44
2023-04-24T04:28:23.927Z,99560.55
2023-04-24T04:30:56.935Z,99556.55
2023-04-24T04:33:29.941Z,99538.63
2023-04-24T04:36:06.921Z,99545.66
2023-04-24T04:38:43.061Z,99535.28
2023-04-24T04:41:27.503Z,99534.15
2023-04-24T04:44:00.560Z,99536.60
2023-04-24T04:46:35.545Z,99534.70
2023-04-24T04:49:18.174Z,99529.23
2023-04-24T04:51:53.764Z,99526.09
2023-04-24T04:54:26.826Z,99528.08
2023-04-24T04:57:00.064Z,99521.83
2023-04-24T04:59:32.718Z,99517.08
2023-04-24T05:02:14.309Z,99527.94
2023-04-24T05:04:47.478Z,99517.91
2023-04-24T05:07:20.953Z,99527.39
2023-04-24T05:09:58.247Z,99522.33
2023-04-24T05:12:30.995Z,99518.77
2023-04-24T05:15:04.289Z,99518.05
2023-04-24T05:17:37.140Z,99517.80
2023-04-24T05:20:11.677Z,99513.48
2023-04-24T05:22:45.967Z,99518.72
2023-04-24T05:25:19.933Z,99518.78
2023-04-24T05:27:58.765Z,99524.12
2023-04-24T05:30:31.571Z,99516.27
2023-04-24T05:33:04.807Z,99512.20
2023-04-24T05:35:47.252Z,99510.66
2023-04-24T05:38:20.878Z,99508.85
2023-04-24T05:40:54.873Z,99501.88
2023-04-24T05:43:27.725Z,99509.86
2023-04-24T05:46:01.699Z,99511.66
2023-04-24T05:48:34.354Z,99510.80
2023-04-24T05:51:09.005Z,99508.73
2023-04-24T05:53:41.450Z,99512.55
2023-04-24T05:56:15.045Z,99512.99
2023-04-24T05:58:47.786Z,99514.57
2023-04-24T06:01:20.928Z,99509.88
2023-04-24T06:03:58.602Z,99514.23
2023-04-24T06:06:36.980Z,99506.19
2023-04-24T06:09:09.922Z,99503.55
2023-04-24T06:11:42.930Z,99503.09
2023-04-24T06:14:16.577Z,99507.29
2023-04-24T06:17:11.482Z,99504.34
2023-04-24T06:19:51.250Z,99508.30
2023-04-24T06:22:25.186Z,99510.06
2023-04-24T06:24:59.449Z,99505.45
2023-04-24T06:27:34.444Z,99500.12
2023-04-24T06:30:09.623Z,99496.72
2023-04-24T06:32:43.258Z,99491.77
2023-04-24T06:35:15.636Z,99489.43
2023-04-24T06:37:49.144Z,99484.75
2023-04-24T06:40:21.981Z,99477.70
2023-04-24T06:42:54.255Z,99481.83
2023-04-24T06:45:26.461Z,99474.89
2023-04-24T06:47:59.496Z,99469.65
2023-04-24T06:50:31.884Z,99473.52
2023-04-24T06:53:04.320Z,99471.72
2023-04-24T06:55:37.906Z,99473.55
2023-04-24T06:58:09.366Z,99476.08
2023-04-24T07:00:41.889Z,99468.36
2023-04-24T07:03:17.338Z,99476.43
2023-04-24T07:05:54.578Z,99481.32
2023-04-24T07:08:27.619Z,99487.70
2023-04-24T07:10:59.892Z,99484.52
2023-04-24T07:13:32.255Z,99479.31
2023-04-24T07:16:05.193Z,99486.62
2023-04-24T07:18:39.686Z,99482.04
2023-04-24T07:21:12.510Z,99478.69
2023-04-24T07:23:45.290Z,99480.59
2023-04-24T07:26:18.206Z,99485.98
2023-04-24T07:28:50.875Z,99481.75
2023-04-24T07:31:23.405Z,99481.96
2023-04-24T07:33:59.279Z,99477.52
2023-04-24T07:36:34.547Z,99483.16
2023-04-24T07:39:08.495Z,99486.04
2023-04-24T07:41:43.632Z,99479.22
2023-04-24T07:44:16.798Z,99482.46
2023-04-24T07:46:53.666Z,99488.93
2023-04-24T07:49:26.340Z,99479.10
2023-04-24T07:51:58.816Z,99465.92
2023-04-24T07:54:31.433Z,99474.34
2023-04-24T07:57:04.013Z,99466.80
2023-04-24T07:59:36.505Z,99470.05
2023-04-24T08:02:09.078Z,99472.44
2023-04-24T08:04:41.984Z,99471.83
2023-04-24T08:07:18.197Z,99462.25
2023-04-24T08:09:52.111Z,99464.33
2023-04-24T08:12:25.824Z,99468.99
2023-04-24T08:14:58.284Z,99469.03
2023-04-24T08:17:31.960Z,99468.63
2023-04-24T08:20:06.406Z,99467.59
2023-04-24T08:22:38.988Z,99472.05
2023-04-24T08:25:13.404Z,99473.05
2023-04-24T08:27:46.566Z,99473.33
2023-04-24T08:30:19.646Z,99474.55
2023-04-24T08:32:53.357Z,99471.23
2023-04-24T08:35:26.130Z,99473.10
2023-04-24T08:37:58.442Z,99475.59
2023-04-24T08:40:36.511Z,99477.56
2023-04-24T08:43:09.442Z,99473.34
2023-04-24T08:45:42.690Z,99478.74
2023-04-24T08:48:27.726Z,99473.44
2023-04-24T08:51:05.405Z,99475.20
2023-04-24T08:53:38.519Z,99472.47
2023-04-24T08:56:11.749Z,99477.20
2023-04-24T08:58:47.371Z,99468.27
2023-04-24T09:01:21.239Z,99467.89
2023-04-24T09:03:59.243Z,99458.30
2023-04-24T09:06:36.154Z,99466.70
2023-04-24T09:09:08.766Z,99469.42
2023-04-24T09:11:42.285Z,99459.69
2023-04-24T09:14:16.986Z,99463.02
2023-04-24T09:16:50.755Z,99459.19
2023-04-24T09:19:23.519Z,99453.86
2023-04-24T09:21:56.947Z,99457.41
2023-04-24T09:24:27.756Z,99451.28
2023-04-24T09:27:03.844Z,99442.86
2023-04-24T09:29:36.352Z,99446.38
2023-04-24T09:32:26.228Z,99444.76
2023-04-24T09:35:13.519Z,99438.27
2023-04-24T09:37:48.089Z,99433.91
2023-04-24T09:40:22.516Z,99433.39
2023-04-24T09:42:59.113Z,99430.34
2023-04-24T09:45:39.375Z,99427.03
2023-04-24T09:48:14.345Z,99424.41
2023-04-24T09:50:50.991Z,99421.63
2023-04-24T09:53:28.602Z,99428.74
2023-04-24T09:56:09.382Z,99425.50
2023-04-24T09:58:43.057Z,99424.43
2023-04-24T10:01:17.718Z,99415.17
2023-04-24T10:03:52.990Z,99417.89
2023-04-24T10:06:33.070Z,99412.28
2023-04-24T10:09:06.644Z,99409.73
2023-04-24T10:11:43.808Z,99407.00
2023-04-24T10:14:19.208Z,99400.23
2023-04-24T10:16:55.234Z,99406.87
2023-04-24T10:19:29.454Z,99402.05
2023-04-24T10:22:03.009Z,99396.94
2023-04-24T10:24:37.328Z,99397.53
2023-04-24T10:27:10.514Z,99386.92
2023-04-24T10:29:41.417Z,99384.31
2023-04-24T10:32:14.904Z,99382.84
2023-04-24T10:34:47.598Z,99376.07
2023-04-24T10:37:19.126Z,99373.34
2023-04-24T10:39:56.050Z,99369.77
2023-04-24T10:42:32.051Z,99365.12
2023-04-24T10:45:11.637Z,99365.12
2023-04-24T10:48:04.340Z,99368.03
2023-04-24T10:50:50.705Z,99361.66
2023-04-24T10:53:25.424Z,99355.98
2023-04-24T10:56:05.036Z,99360.11
2023-04-24T10:58:46.158Z,99357.43
2023-04-24T11:01:30.494Z,99357.75
2023-04-24T11:04:06.097Z,99349.09
2023-04-24T11:06:39.860Z,99355.00
2023-04-24T11:09:14.257Z,99357.66
2023-04-24T11:11:51.151Z,99348.73
2023-04-24T11:14:23.569Z,99349.78
2023-04-24T11:16:57.500Z,99344.05
2023-04-24T11:19:32.287Z,99354.33
2023-04-24T11:22:06.995Z,99345.59
2023-04-24T11:24:52.166Z,99342.63
2023-04-24T11:27:32.160Z,99353.36
2023-04-24T11:30:06.133Z,99340.59
2023-04-24T11:32:41.546Z,99339.91
2023-04-24T11:35:18.045Z,99335.56
2023-04-24T11:38:13.084Z,99338.03
2023-04-24T11:40:47.236Z,99345.28
2023-04-24T11:43:21.359Z,99329.26
2023-04-24T11:45:55.404Z,99340.25
2023-04-24T11:48:28.257Z,99334.44
2023-04-24T11:51:04.063Z,99341.23
2023-04-24T11:53:38.565Z,99338.63
2023-04-24T11:56:12.605Z,99341.23
2023-04-24T11:58:45.950Z,99326.52
2023-04-24T12:01:18.304Z,99328.53
2023-04-24T12:04:02.237Z,99317.23
2023-04-24T12:06:35.248Z,99316.44
2023-04-24T12:09:17.775Z,99314.49
2023-04-24T12:11:59.286Z,99307.58
2023-04-24T12:14:31.738Z,99307.58
2023-04-24T12:17:07.000Z,99307.72
2023-04-24T12:19:47.965Z,99315.63
2023-04-24T12:22:21.037Z,99306.87
2023-04-24T12:25:04.312Z,99305.13
2023-04-24T12:27:37.088Z,99314.24
2023-04-24T12:30:15.371Z,99308.13
2023-04-24T12:32:51.564Z,99310.30
2023-04-24T12:35:28.792Z,99331.86
2023-04-24T12:38:10.243Z,99328.14
2023-04-24T12:40:44.228Z,99344.78
2023-04-24T12:43:20.566Z,99356.59
2023-04-24T12:45:53.528Z,99375.28
2023-04-24T12:48:26.993Z,99358.95
2023-04-24T12:51:02.834Z,99374.13
2023-04-24T12:53:35.501Z,99357.31
2023-04-24T12:56:10.425Z,99354.29
2023-04-24T12:58:44.695Z,99355.57
2023-04-24T13:01:17.096Z,99349.61
2023-04-24T13:03:50.475Z,99354.70
2023-04-24T13:06:27.711Z,99368.77
2023-04-24T13:09:00.419Z,99353.28
2023-04-24T13:11:32.987Z,99353.16
2023-04-24T13:14:05.365Z,99347.30
2023-04-24T13:16:47.686Z,99342.84
2023-04-24T13:19:20.326Z,99327.64
2023-04-24T13:21:53.463Z,99335.28
2023-04-24T13:24:27.223Z,99327.94
2023-04-24T13:27:00.298Z,99320.26
2023-04-24T13:29:33.922Z,99327.30
2023-04-24T13:32:07.017Z,99317.47
2023-04-24T13:34:40.320Z,99305.03
2023-04-24T13:37:18.427Z,99312.19
2023-04-24T13:39:58.789Z,99310.27
2023-04-24T13:42:31.686Z,99312.74
2023-04-24T13:45:21.338Z,99302.50
2023-04-24T13:48:04.298Z,99307.22
2023-04-24T13:50:36.669Z,99308.55
2023-04-24T13:53:09.407Z,99310.70
2023-04-24T13:55:41.880Z,99311.42
2023-04-24T13:58:16.211Z,99307.80
2023-04-24T14:00:51.969Z,99305.73
2023-04-24T14:03:25.190Z,99293.17
2023-04-24T14:05:58.792Z,99283.38
2023-04-24T14:08:31.261Z,99277.73
2023-04-24T14:11:04.629Z,99277.75
2023-04-24T14:13:38.073Z,99282.20
2023-04-24T14:16:11.134Z,99284.98
2023-04-24T14:18:46.198Z,99286.54
2023-04-24T14:21:18.618Z,99282.78
2023-04-24T14:23:51.688Z,99282.30
2023-04-24T14:26:25.831Z,99276.84
2023-04-24T14:29:11.642Z,99271.54
2023-04-24T14:31:49.892Z,99266.91
2023-04-24T14:34:22.738Z,99259.52
2023-04-24T14:36:58.684Z,99259.61
2023-04-24T14:39:31.395Z,99253.19
2023-04-24T14:42:04.027Z,99254.50
2023-04-24T14:44:42.768Z,99262.34
2023-04-24T14:47:16.236Z,99249.23
2023-04-24T14:49:51.552Z,99248.50
2023-04-24T14:52:23.899Z,99244.15
2023-04-24T14:54:56.374Z,99243.19
2023-04-24T14:57:29.247Z,99228.20
2023-04-24T15:00:02.162Z,99235.84
2023-04-24T15:02:35.150Z,99237.08
2023-04-24T15:05:10.208Z,99230.91
2023-04-24T15:07:43.751Z,99229.34
2023-04-24T15:10:18.917Z,99230.31
2023-04-24T15:12:49.828Z,99220.89
2023-04-24T15:15:22.553Z,99214.41
2023-04-24T15:17:56.438Z,99219.34
2023-04-24T15:20:29.226Z,99218.03
2023-04-24T15:23:03.439Z,99210.09
2023-04-24T15:25:39.157Z,99207.81
2023-04-24T15:28:11.780Z,99201.91
2023-04-24T15:30:45.957Z,99200.73
2023-04-24T15:33:19.159Z,99201.58
2023-04-24T15:35:52.512Z,99190.84
2023-04-24T15:38:25.173Z,99185.67
2023-04-24T15:40:57.623Z,99192.28
2023-04-24T15:43:35.448Z,99182.77
2023-04-24T15:46:11.374Z,99184.55
2023-04-24T15:48:46.107Z,99173.32
2023-04-24T15:51:18.461Z,99172.47
2023-04-24T15:53:51.444Z,99176.19
2023-04-24T15:56:24.606Z,99172.77
2023-04-24T15:58:57.059Z,99166.80
2023-04-24T16:01:29.703Z,99167.70
2023-04-24T16:04:02.488Z,99166.80
2023-04-24T16:06:35.148Z,99166.74
2023-04-24T16:09:08.826Z,99169.58
2023-04-24T16:11:41.763Z,99160.83
2023-04-24T16:14:14.139Z,99163.59
2023-04-24T16:16:49.426Z,99164.47
2023-04-24T16:19:21.914Z,99171.58
2023-04-24T16:21:56.670Z,99171.61
2023-04-24T16:24:29.598Z,99167.17
2023-04-24T16:27:04.635Z,99167.07
2023-04-24T16:29:37.200Z,99163.17
2023-04-24T16:32:10.588Z,99165.47
2023-04-24T16:34:43.345Z,99164.20
2023-04-24T16:37:16.611Z,99156.67
2023-04-24T16:39:55.299Z,99162.36
2023-04-24T16:42:33.573Z,99159.09
2023-04-24T16:45:08.642Z,99163.82
2023-04-24T16:47:43.721Z,99159.71
2023-04-24T16:50:16.875Z,99156.63
2023-04-24T16:52:54.099Z,99159.98
2023-04-24T16:55:27.810Z,99158.81
2023-04-24T16:57:58.779Z,99160.38
2023-04-24T17:00:31.647Z,99162.00
2023-04-24T17:03:06.783Z,99165.36
2023-04-24T17:05:39.625Z,99165.20
2023-04-24T17:08:12.676Z,99156.34
2023-04-24T17:10:46.313Z,99154.66
2023-04-24T17:13:18.962Z,99162.69
2023-04-24T17:15:51.315Z,99158.46
2023-04-24T17:18:24.848Z,99159.39
2023-04-24T17:20:57.215Z,99163.81
2023-04-24T17:23:29.686Z,99159.52
2023-04-24T17:26:02.321Z,99162.32
2023-04-24T17:28:36.654Z,99165.94
2023-04-24T17:31:10.084Z,99163.61
2023-04-24T17:33:42.542Z,99167.27
2023-04-24T17:36:14.978Z,99163.73
2023-04-24T17:38:48.461Z,99165.34
2023-04-24T17:41:21.837Z,99168.70
2023-04-24T17:43:54.461Z,99167.76
2023-04-24T17:46:27.467Z,99165.94
2023-04-24T17:49:00.296Z,99165.84
2023-04-24T17:51:33.003Z,99160.22
2023-04-24T17:54:05.622Z,99162.47
2023-04-24T17:56:38.529Z,99161.09
2023-04-24T17:59:12.360Z,99166.83
2023-04-24T18:01:47.959Z,99162.89
2023-04-24T18:04:20.735Z,99157.96
2023-04-24T18:06:53.498Z,99160.19
2023-04-24T18:09:26.307Z,99164.17
2023-04-24T18:11:58.646Z,99168.88
2023-04-24T18:14:31.677Z,99170.17
2023-04-24T18:17:05.489Z,99174.03
2023-04-24T18:19:38.769Z,99173.62
2023-04-24T18:22:13.622Z,99163.52
2023-04-24T18:24:50.612Z,99173.59
2023-04-24T18:27:29.412Z,99177.72
2023-04-24T18:30:03.776Z,99175.61
2023-04-24T18:32:36.409Z,99176.02
2023-04-24T18:35:10.957Z,99189.50
2023-04-24T18:37:43.439Z,99184.60
2023-04-24T18:40:18.685Z,99188.35
2023-04-24T18:42:51.661Z,99193.02
2023-04-24T18:45:24.411Z,99185.28
2023-04-24T18:47:57.211Z,99188.82
2023-04-24T18:50:32.000Z,99192.36
2023-04-24T18:53:04.529Z,99192.36
2023-04-24T18:55:37.504Z,99192.31
2023-04-24T18:58:12.685Z,99197.39
2023-04-24T19:00:48.064Z,99199.97
2023-04-24T19:03:20.995Z,99200.67
2023-04-24T19:05:54.283Z,99199.63
2023-04-24T19:08:26.610Z,99207.12
2023-04-24T19:10:59.063Z,99208.56
2023-04-24T19:13:31.556Z,99205.59
2023-04-24T19:16:04.823Z,99209.76
2023-04-24T19:18:38.178Z,99209.41
2023-04-24T19:21:10.988Z,99210.81
2023-04-24T19:23:46.648Z,99204.38
2023-04-24T19:26:19.229Z,99205.78
2023-04-24T19:28:53.781Z,99204.64
2023-04-24T19:31:28.888Z,99204.50
2023-04-24T19:34:06.568Z,99208.74
2023-04-24T19:36:43.957Z,99205.11
2023-04-24T19:39:17.196Z,99213.72
2023-04-24T19:41:51.162Z,99232.09
2023-04-24T19:44:23.894Z,99238.39
2023-04-24T19:46:56.281Z,99248.24
2023-04-24T19:49:29.220Z,99251.03
2023-04-24T19:52:02.184Z,99246.76
2023-04-24T19:54:36.755Z,99237.27
2023-04-24T19:57:11.553Z,99251.39
2023-04-24T19:59:44.182Z,99243.52
2023-04-24T20:02:17.064Z,99252.39
2023-04-24T20:04:51.089Z,99247.54
2023-04-24T20:07:24.270Z,99250.54
2023-04-24T20:09:58.124Z,99252.42
2023-04-24T20:12:36.376Z,99252.59
2023-04-24T20:15:12.111Z,99251.02
2023-04-24T20:17:48.122Z,99252.14
2023-04-24T20:20:20.770Z,99252.56
2023-04-24T20:22:53.482Z,99258.05
2023-04-24T20:25:26.220Z,99251.27
2023-04-24T20:27:58.862Z,99253.22
2023-04-24T20:30:32.729Z,99249.27
2023-04-24T20:33:05.584Z,99253.02
2023-04-24T20:35:38.275Z,99259.33
2023-04-24T20:38:11.725Z,99250.91
2023-04-24T20:40:57.279Z,99255.64
2023-04-24T20:43:31.155Z,99260.28
2023-04-24T20:46:04.037Z,99256.16
2023-04-24T20:48:36.705Z,99253.80
2023-04-24T20:51:09.330Z,99248.01
2023-04-24T20:53:49.754Z,99250.89
2023-04-24T20:56:24.945Z,99248.47
2023-04-24T20:58:59.155Z,99251.39
2023-04-24T21:01:30.581Z,99253.47
2023-04-24T21:04:05.994Z,99257.23
2023-04-24T21:06:38.553Z,99257.48
2023-04-24T21:09:12.635Z,99262.84
2023-04-24T21:11:46.517Z,99265.45
2023-04-24T21:14:22.052Z,99267.23
2023-04-24T21:16:56.722Z,99263.63
2023-04-24T21:19:29.851Z,99275.80
2023-04-24T21:22:02.425Z,99267.05
2023-04-24T21:24:34.952Z,99272.28
2023-04-24T21:27:08.117Z,99265.41
2023-04-24T21:29:40.686Z,99268.07
2023-04-24T21:32:19.369Z,99267.27
2023-04-24T21:34:52.199Z,99263.09
2023-04-24T21:37:24.541Z,99268.43
2023-04-24T21:39:57.267Z,99271.16
2023-04-24T21:42:32.495Z,99267.81
2023-04-24T21:45:05.892Z,99270.54
2023-04-24T21:47:38.629Z,99268.06
2023-04-24T21:50:15.377Z,99266.39
2023-04-24T21:52:49.103Z,99275.29
2023-04-24T21:55:23.710Z,99270.17
2023-04-24T21:57:56.178Z,99264.20
2023-04-24T22:00:29.439Z,99260.86
2023-04-24T22:03:01.945Z,99261.87
2023-04-24T22:05:35.632Z,99258.49
2023-04-24T22:08:08.228Z,99265.61
2023-04-24T22:10:47.296Z,99257.87
2023-04-24T22:13:19.760Z,99266.62
2023-04-24T22:15:55.113Z,99268.39
2023-04-24T22:18:36.570Z,99262.40
2023-04-24T22:21:17.947Z,99264.25
2023-04-24T22:23:50.857Z,99252.08
2023-04-24T22:26:24.313Z,99258.31
2023-04-24T22:28:56.780Z,99260.13
2023-04-24T22:31:29.610Z,99254.09
2023-04-24T22:34:04.069Z,99257.75
2023-04-24T22:36:37.333Z,99256.95
2023-04-24T22:39:10.858Z,99257.02
2023-04-24T22:41:44.490Z,99254.51
2023-04-24T22:44:21.873Z,99265.03
2023-04-24T22:46:54.464Z,99261.61
2023-04-24T22:49:28.456Z,99266.88
2023-04-24T22:51:59.530Z,99260.00
2023-04-24T22:54:35.420Z,99262.72
2023-04-24T22:57:08.368Z,99266.27
2023-04-24T22:59:41.039Z,99274.20
2023-04-24T23:02:16.177Z,99268.17
2023-04-24T23:04:49.577Z,99268.23
2023-04-24T23:07:22.512Z,99262.24
2023-04-24T23:09:56.184Z,99260.59
2023-04-24T23:12:32.977Z,99263.31
2023-04-24T23:15:09.244Z,99262.63
2023-04-24T23:17:42.623Z,99263.63
2023-04-24T23:20:19.782Z,99258.47
2023-04-24T23:22:53.820Z,99260.28
2023-04-24T23:25:26.481Z,99261.28
2023-04-24T23:27:58.988Z,99258.83
2023-04-24T23:30:31.658Z,99262.34
2023-04-24T23:33:04.549Z,99255.38
2023-04-24T23:35:37.601Z,99256.28
2023-04-24T23:38:12.592Z,99261.44
2023-04-24T23:40:59.259Z,99262.31
2023-04-24T23:43:31.920Z,99242.41
2023-04-24T23:46:04.879Z,99238.25
2023-04-24T23:48:37.859Z,99250.41
2023-04-24T23:51:11.818Z,99244.28
2023-04-24T23:53:44.730Z,99244.22
2023-04-24T23:56:19.539Z,99242.52
2023-04-24T23:58:52.692Z,99247.73
